FLI456 EKCH-EKVG
Flight info
| Callsign | FLI456 |
|---|---|
| Flight time | 1h 56m |
| Altitude | 38000 |
| Route | GOLGA DCT AMSEV DCT ZOL DCT GUNPA/M077F380 DCT ROBUR |
| Aircraft | A20N/M-SDE2E3FGHIRWXY/LB1 |
Departure
| Time | 2026-05-06 11:20 |
|---|---|
| Airport | Copenhagen Kastrup Airport (EKCH) |
Arrival
| Time | 2026-05-06 13:17 |
|---|---|
| Airport | Vágar Airport (EKVG) |
| Time | Latitude | Longitude | Altitude | Speed | Heading |
|---|---|---|---|---|---|
| 2026-05-06 10:53 | 55.62878 | 12.64068 | 21 ft | 0 kts | 12° |
| 2026-05-06 11:08 | 55.62877 | 12.64068 | 21 ft | 0 kts | 12° |
| 2026-05-06 11:08 | 55.62864 | 12.64064 | 21 ft | 2 kts | 8° |
| 2026-05-06 11:09 | 55.62849 | 12.64060 | 21 ft | 1 kts | 10° |
| 2026-05-06 11:09 | 55.62838 | 12.64054 | 21 ft | 2 kts | 33° |
| 2026-05-06 11:09 | 55.62826 | 12.64036 | 21 ft | 2 kts | 56° |
| 2026-05-06 11:09 | 55.62820 | 12.64012 | 21 ft | 2 kts | 81° |
| 2026-05-06 11:10 | 55.62820 | 12.63985 | 21 ft | 2 kts | 105° |
| 2026-05-06 11:10 | 55.62825 | 12.63960 | 21 ft | 2 kts | 103° |
| 2026-05-06 11:10 | 55.62828 | 12.63934 | 21 ft | 2 kts | 105° |
| 2026-05-06 11:10 | 55.62832 | 12.63909 | 21 ft | 2 kts | 104° |
| 2026-05-06 11:11 | 55.62836 | 12.63883 | 21 ft | 2 kts | 105° |
| 2026-05-06 11:11 | 55.62837 | 12.63874 | 21 ft | 0 kts | 105° |
| 2026-05-06 11:13 | 55.62835 | 12.63886 | 21 ft | 2 kts | 105° |
| 2026-05-06 11:13 | 55.62825 | 12.63923 | 21 ft | 5 kts | 128° |
| 2026-05-06 11:14 | 55.62779 | 12.63951 | 21 ft | 9 kts | 191° |
| 2026-05-06 11:14 | 55.62708 | 12.63881 | 21 ft | 13 kts | 214° |
| 2026-05-06 11:14 | 55.62632 | 12.63908 | 21 ft | 13 kts | 123° |
| 2026-05-06 11:14 | 55.62576 | 12.64058 | 21 ft | 15 kts | 123° |
| 2026-05-06 11:15 | 55.62510 | 12.64236 | 21 ft | 18 kts | 124° |
| 2026-05-06 11:15 | 55.62427 | 12.64432 | 21 ft | 21 kts | 127° |
| 2026-05-06 11:15 | 55.62341 | 12.64654 | 21 ft | 23 kts | 122° |
| 2026-05-06 11:15 | 55.62263 | 12.64793 | 21 ft | 13 kts | 172° |
| 2026-05-06 11:16 | 55.62176 | 12.64735 | 21 ft | 14 kts | 212° |
| 2026-05-06 11:16 | 55.62091 | 12.64636 | 21 ft | 14 kts | 214° |
| 2026-05-06 11:16 | 55.62001 | 12.64534 | 21 ft | 16 kts | 205° |
| 2026-05-06 11:16 | 55.61887 | 12.64513 | 22 ft | 17 kts | 175° |
| 2026-05-06 11:17 | 55.61765 | 12.64550 | 22 ft | 18 kts | 169° |
| 2026-05-06 11:17 | 55.61641 | 12.64526 | 22 ft | 18 kts | 213° |
| 2026-05-06 11:17 | 55.61529 | 12.64398 | 22 ft | 20 kts | 214° |
| 2026-05-06 11:17 | 55.61401 | 12.64252 | 22 ft | 23 kts | 211° |
| 2026-05-06 11:18 | 55.61258 | 12.64092 | 22 ft | 25 kts | 213° |
| 2026-05-06 11:18 | 55.61108 | 12.63915 | 23 ft | 25 kts | 214° |
| 2026-05-06 11:18 | 55.60964 | 12.63749 | 22 ft | 24 kts | 213° |
| 2026-05-06 11:18 | 55.60831 | 12.63597 | 22 ft | 16 kts | 208° |
| 2026-05-06 11:19 | 55.60742 | 12.63675 | 22 ft | 15 kts | 131° |
| 2026-05-06 11:19 | 55.60671 | 12.63818 | 22 ft | 11 kts | 133° |
| 2026-05-06 11:19 | 55.60673 | 12.63864 | 22 ft | 4 kts | 46° |
| 2026-05-06 11:19 | 55.60822 | 12.64096 | 23 ft | 63 kts | 41° |
| 2026-05-06 11:20 | 55.61319 | 12.64867 | 24 ft | 125 kts | 42° |
| 2026-05-06 11:20 | 55.62109 | 12.66081 | 123 ft | 164 kts | 40° |
| 2026-05-06 11:20 | 55.62985 | 12.67409 | 615 ft | 172 kts | 40° |
| 2026-05-06 11:20 | 55.63872 | 12.68802 | 1351 ft | 170 kts | 41° |
| 2026-05-06 11:21 | 55.64743 | 12.70194 | 1912 ft | 175 kts | 41° |
| 2026-05-06 11:21 | 55.65755 | 12.71429 | 2364 ft | 185 kts | 17° |
| 2026-05-06 11:21 | 55.67069 | 12.71482 | 2756 ft | 202 kts | 347° |
| 2026-05-06 11:21 | 55.68471 | 12.70628 | 3070 ft | 225 kts | 345° |
| 2026-05-06 11:22 | 55.70054 | 12.70086 | 3516 ft | 241 kts | 355° |
| 2026-05-06 11:22 | 55.71775 | 12.69708 | 4015 ft | 258 kts | 348° |
| 2026-05-06 11:22 | 55.73375 | 12.68196 | 4690 ft | 270 kts | 321° |
| 2026-05-06 11:22 | 55.74724 | 12.65865 | 5490 ft | 275 kts | 316° |
| 2026-05-06 11:23 | 55.76060 | 12.63426 | 6224 ft | 281 kts | 317° |
| 2026-05-06 11:23 | 55.77445 | 12.60984 | 6989 ft | 285 kts | 318° |
| 2026-05-06 11:23 | 55.78870 | 12.58563 | 7773 ft | 287 kts | 319° |
| 2026-05-06 11:23 | 55.80328 | 12.56144 | 8551 ft | 289 kts | 319° |
| 2026-05-06 11:24 | 55.81805 | 12.53729 | 9334 ft | 292 kts | 319° |
| 2026-05-06 11:24 | 55.83319 | 12.51273 | 10115 ft | 295 kts | 319° |
| 2026-05-06 11:24 | 55.84853 | 12.48797 | 10664 ft | 306 kts | 319° |
| 2026-05-06 11:24 | 55.86467 | 12.46196 | 11022 ft | 324 kts | 319° |
| 2026-05-06 11:25 | 55.88188 | 12.43422 | 11350 ft | 342 kts | 319° |
| 2026-05-06 11:25 | 55.89983 | 12.40529 | 11764 ft | 355 kts | 319° |
| 2026-05-06 11:25 | 55.91823 | 12.37560 | 12416 ft | 360 kts | 318° |
| 2026-05-06 11:25 | 55.93667 | 12.34580 | 13096 ft | 364 kts | 317° |
| 2026-05-06 11:26 | 55.95575 | 12.31494 | 13759 ft | 368 kts | 317° |
| 2026-05-06 11:26 | 55.97459 | 12.28445 | 14440 ft | 370 kts | 316° |
| 2026-05-06 11:26 | 55.99345 | 12.25389 | 15133 ft | 371 kts | 316° |
| 2026-05-06 11:26 | 56.01265 | 12.22272 | 15819 ft | 372 kts | 315° |
| 2026-05-06 11:27 | 56.03159 | 12.19190 | 16481 ft | 374 kts | 315° |
| 2026-05-06 11:27 | 56.05078 | 12.16060 | 17108 ft | 376 kts | 315° |
| 2026-05-06 11:27 | 56.07005 | 12.12912 | 17700 ft | 379 kts | 314° |
| 2026-05-06 11:27 | 56.08953 | 12.09725 | 18282 ft | 382 kts | 314° |
| 2026-05-06 11:28 | 56.10912 | 12.06520 | 18846 ft | 384 kts | 314° |
| 2026-05-06 11:28 | 56.12880 | 12.03294 | 19387 ft | 387 kts | 314° |
| 2026-05-06 11:28 | 56.14870 | 12.00028 | 19916 ft | 390 kts | 314° |
| 2026-05-06 11:28 | 56.16878 | 11.96729 | 20434 ft | 393 kts | 313° |
| 2026-05-06 11:29 | 56.18895 | 11.93409 | 20941 ft | 396 kts | 313° |
| 2026-05-06 11:29 | 56.20920 | 11.90071 | 21431 ft | 398 kts | 313° |
| 2026-05-06 11:29 | 56.22941 | 11.86737 | 21896 ft | 401 kts | 313° |
| 2026-05-06 11:29 | 56.25003 | 11.83330 | 22366 ft | 404 kts | 313° |
| 2026-05-06 11:30 | 56.27051 | 11.79942 | 22817 ft | 407 kts | 313° |
| 2026-05-06 11:30 | 56.29136 | 11.76486 | 23263 ft | 410 kts | 313° |
| 2026-05-06 11:30 | 56.31227 | 11.73014 | 23698 ft | 412 kts | 313° |
| 2026-05-06 11:30 | 56.33293 | 11.69420 | 24125 ft | 413 kts | 309° |
| 2026-05-06 11:31 | 56.35241 | 11.65644 | 24545 ft | 414 kts | 307° |
| 2026-05-06 11:31 | 56.37157 | 11.61764 | 24961 ft | 416 kts | 307° |
| 2026-05-06 11:31 | 56.39067 | 11.57859 | 25371 ft | 419 kts | 306° |
| 2026-05-06 11:31 | 56.40982 | 11.53936 | 25768 ft | 421 kts | 306° |
| 2026-05-06 11:32 | 56.42926 | 11.49951 | 26162 ft | 424 kts | 306° |
| 2026-05-06 11:32 | 56.44873 | 11.45959 | 26535 ft | 427 kts | 306° |
| 2026-05-06 11:32 | 56.46827 | 11.41946 | 26890 ft | 430 kts | 306° |
| 2026-05-06 11:32 | 56.48816 | 11.37857 | 27240 ft | 433 kts | 306° |
| 2026-05-06 11:33 | 56.50805 | 11.33760 | 27574 ft | 436 kts | 305° |
| 2026-05-06 11:33 | 56.52799 | 11.29647 | 27923 ft | 438 kts | 305° |
| 2026-05-06 11:33 | 56.54811 | 11.25492 | 28314 ft | 438 kts | 305° |
| 2026-05-06 11:33 | 56.56813 | 11.21353 | 28754 ft | 437 kts | 304° |
| 2026-05-06 11:34 | 56.58788 | 11.17263 | 29192 ft | 436 kts | 304° |
| 2026-05-06 11:34 | 56.60785 | 11.13121 | 29622 ft | 435 kts | 304° |
| 2026-05-06 11:34 | 56.62750 | 11.09036 | 30070 ft | 435 kts | 304° |
| 2026-05-06 11:34 | 56.64741 | 11.04890 | 30531 ft | 434 kts | 304° |
| 2026-05-06 11:35 | 56.66710 | 11.00784 | 30991 ft | 433 kts | 304° |
| 2026-05-06 11:35 | 56.68678 | 10.96667 | 31452 ft | 432 kts | 303° |
| 2026-05-06 11:35 | 56.70646 | 10.92546 | 31900 ft | 431 kts | 303° |
| 2026-05-06 11:35 | 56.72579 | 10.88494 | 32330 ft | 429 kts | 303° |
| 2026-05-06 11:36 | 56.74533 | 10.84385 | 32723 ft | 429 kts | 303° |
| 2026-05-06 11:36 | 56.76474 | 10.80299 | 33098 ft | 428 kts | 303° |
| 2026-05-06 11:36 | 56.78405 | 10.76225 | 33466 ft | 427 kts | 303° |
| 2026-05-06 11:36 | 56.80344 | 10.72128 | 33829 ft | 426 kts | 303° |
| 2026-05-06 11:37 | 56.82257 | 10.68081 | 34168 ft | 425 kts | 303° |
| 2026-05-06 11:37 | 56.84172 | 10.64022 | 34488 ft | 425 kts | 303° |
| 2026-05-06 11:37 | 56.86097 | 10.59935 | 34800 ft | 424 kts | 303° |
| 2026-05-06 11:37 | 56.87997 | 10.55891 | 35099 ft | 423 kts | 302° |
| 2026-05-06 11:38 | 56.89920 | 10.51793 | 35380 ft | 423 kts | 302° |
| 2026-05-06 11:38 | 56.91821 | 10.47732 | 35642 ft | 422 kts | 302° |
| 2026-05-06 11:38 | 56.93711 | 10.43692 | 35899 ft | 421 kts | 302° |
| 2026-05-06 11:38 | 56.95607 | 10.39632 | 36149 ft | 421 kts | 302° |
| 2026-05-06 11:39 | 56.97494 | 10.35580 | 36325 ft | 420 kts | 302° |
| 2026-05-06 11:39 | 56.99377 | 10.31533 | 36476 ft | 419 kts | 302° |
| 2026-05-06 11:39 | 57.01280 | 10.27434 | 36637 ft | 418 kts | 302° |
| 2026-05-06 11:39 | 57.03146 | 10.23410 | 36781 ft | 417 kts | 302° |
| 2026-05-06 11:40 | 57.05003 | 10.19397 | 36912 ft | 416 kts | 302° |
| 2026-05-06 11:40 | 57.06875 | 10.15344 | 37038 ft | 416 kts | 302° |
| 2026-05-06 11:40 | 57.08727 | 10.11331 | 37159 ft | 415 kts | 302° |
| 2026-05-06 11:41 | 57.12461 | 10.03214 | 37320 ft | 416 kts | 302° |
| 2026-05-06 11:41 | 57.16199 | 9.95061 | 37428 ft | 417 kts | 303° |
| 2026-05-06 11:42 | 57.19907 | 9.86948 | 37540 ft | 419 kts | 303° |
| 2026-05-06 11:42 | 57.23660 | 9.78712 | 37647 ft | 420 kts | 303° |
| 2026-05-06 11:43 | 57.27406 | 9.70460 | 37749 ft | 421 kts | 303° |
| 2026-05-06 11:43 | 57.31155 | 9.62173 | 37852 ft | 422 kts | 303° |
| 2026-05-06 11:44 | 57.36759 | 9.49737 | 37936 ft | 424 kts | 303° |
| 2026-05-06 11:44 | 57.40533 | 9.41322 | 37933 ft | 424 kts | 303° |
| 2026-05-06 11:45 | 57.44279 | 9.32938 | 37944 ft | 424 kts | 303° |
| 2026-05-06 11:45 | 57.48011 | 9.24559 | 37946 ft | 425 kts | 303° |
| 2026-05-06 11:46 | 57.51751 | 9.16129 | 37950 ft | 424 kts | 303° |
| 2026-05-06 11:46 | 57.55494 | 9.07663 | 37952 ft | 424 kts | 303° |
| 2026-05-06 11:47 | 57.59212 | 8.99220 | 37954 ft | 424 kts | 303° |
| 2026-05-06 11:47 | 57.62935 | 8.90735 | 37956 ft | 424 kts | 303° |
| 2026-05-06 11:48 | 57.66643 | 8.82253 | 37956 ft | 424 kts | 303° |
| 2026-05-06 11:48 | 57.70222 | 8.73614 | 37958 ft | 423 kts | 301° |
| 2026-05-06 11:49 | 57.73758 | 8.64829 | 37957 ft | 424 kts | 301° |
| 2026-05-06 11:49 | 57.77279 | 8.56055 | 37958 ft | 424 kts | 301° |
| 2026-05-06 11:50 | 57.80812 | 8.47226 | 37957 ft | 424 kts | 301° |
| 2026-05-06 11:50 | 57.84322 | 8.38427 | 37958 ft | 424 kts | 301° |
| 2026-05-06 11:51 | 57.87838 | 8.29579 | 37960 ft | 424 kts | 300° |
| 2026-05-06 11:51 | 57.91343 | 8.20728 | 37961 ft | 423 kts | 300° |
| 2026-05-06 11:52 | 57.94832 | 8.11884 | 37964 ft | 423 kts | 300° |
| 2026-05-06 11:52 | 57.98309 | 8.03035 | 37966 ft | 423 kts | 301° |
| 2026-05-06 11:53 | 58.01792 | 7.94140 | 37971 ft | 423 kts | 301° |
| 2026-05-06 11:53 | 58.05278 | 7.85206 | 37972 ft | 423 kts | 301° |
| 2026-05-06 11:54 | 58.08749 | 7.76278 | 37972 ft | 424 kts | 301° |
| 2026-05-06 11:54 | 58.12236 | 7.67271 | 37969 ft | 423 kts | 300° |
| 2026-05-06 11:55 | 58.15712 | 7.58260 | 37963 ft | 424 kts | 300° |
| 2026-05-06 11:55 | 58.19168 | 7.49267 | 37963 ft | 424 kts | 300° |
| 2026-05-06 11:56 | 58.22599 | 7.40303 | 37957 ft | 424 kts | 301° |
| 2026-05-06 11:56 | 58.26059 | 7.31234 | 37950 ft | 424 kts | 300° |
| 2026-05-06 11:57 | 58.29491 | 7.22202 | 37940 ft | 424 kts | 300° |
| 2026-05-06 11:57 | 58.32912 | 7.13167 | 37936 ft | 424 kts | 300° |
| 2026-05-06 11:58 | 58.36338 | 7.04085 | 37936 ft | 424 kts | 300° |
| 2026-05-06 11:58 | 58.39761 | 6.94974 | 37937 ft | 424 kts | 300° |
| 2026-05-06 11:59 | 58.43182 | 6.85827 | 37941 ft | 424 kts | 300° |
| 2026-05-06 11:59 | 58.46578 | 6.76715 | 37945 ft | 425 kts | 300° |
| 2026-05-06 12:00 | 58.49995 | 6.67512 | 37956 ft | 425 kts | 300° |
| 2026-05-06 12:00 | 58.53392 | 6.58329 | 37970 ft | 425 kts | 300° |
| 2026-05-06 12:01 | 58.56776 | 6.49146 | 37977 ft | 425 kts | 300° |
| 2026-05-06 12:01 | 58.60165 | 6.39915 | 37970 ft | 425 kts | 300° |
| 2026-05-06 12:02 | 58.63548 | 6.30659 | 37962 ft | 425 kts | 300° |
| 2026-05-06 12:02 | 58.66911 | 6.21426 | 37958 ft | 425 kts | 300° |
| 2026-05-06 12:03 | 58.70279 | 6.12141 | 37961 ft | 425 kts | 300° |
| 2026-05-06 12:03 | 58.73647 | 6.02821 | 37968 ft | 425 kts | 300° |
| 2026-05-06 12:04 | 58.76985 | 5.93545 | 37974 ft | 425 kts | 300° |
| 2026-05-06 12:04 | 58.80350 | 5.84158 | 37983 ft | 425 kts | 300° |
| 2026-05-06 12:05 | 58.83677 | 5.74833 | 37987 ft | 425 kts | 300° |
| 2026-05-06 12:05 | 58.87028 | 5.65482 | 37997 ft | 427 kts | 301° |
| 2026-05-06 12:06 | 58.90698 | 5.56484 | 38009 ft | 427 kts | 304° |
| 2026-05-06 12:06 | 58.94460 | 5.47589 | 38015 ft | 427 kts | 304° |
| 2026-05-06 12:07 | 58.98183 | 5.38747 | 38017 ft | 427 kts | 304° |
| 2026-05-06 12:07 | 59.01929 | 5.29805 | 38019 ft | 427 kts | 304° |
| 2026-05-06 12:08 | 59.05641 | 5.20908 | 38023 ft | 427 kts | 304° |
| 2026-05-06 12:08 | 59.09346 | 5.11993 | 38027 ft | 427 kts | 304° |
| 2026-05-06 12:09 | 59.13078 | 5.02980 | 38032 ft | 427 kts | 304° |
| 2026-05-06 12:09 | 59.16770 | 4.94028 | 38038 ft | 427 kts | 304° |
| 2026-05-06 12:10 | 59.20476 | 4.85007 | 38011 ft | 428 kts | 304° |
| 2026-05-06 12:10 | 59.24180 | 4.75953 | 38004 ft | 428 kts | 304° |
| 2026-05-06 12:11 | 59.27878 | 4.66877 | 38029 ft | 429 kts | 304° |
| 2026-05-06 12:11 | 59.31558 | 4.57810 | 38037 ft | 429 kts | 304° |
| 2026-05-06 12:12 | 59.35254 | 4.48673 | 38038 ft | 429 kts | 304° |
| 2026-05-06 12:12 | 59.38939 | 4.39523 | 38037 ft | 430 kts | 304° |
| 2026-05-06 12:13 | 59.42573 | 4.30464 | 38036 ft | 430 kts | 303° |
| 2026-05-06 12:13 | 59.46251 | 4.21260 | 38034 ft | 430 kts | 303° |
| 2026-05-06 12:14 | 59.49924 | 4.12037 | 38031 ft | 430 kts | 303° |
| 2026-05-06 12:14 | 59.53589 | 4.02801 | 38030 ft | 430 kts | 303° |
| 2026-05-06 12:15 | 59.57251 | 3.93533 | 38032 ft | 431 kts | 303° |
| 2026-05-06 12:15 | 59.60903 | 3.84252 | 38032 ft | 431 kts | 303° |
| 2026-05-06 12:16 | 59.64565 | 3.74910 | 38038 ft | 431 kts | 303° |
| 2026-05-06 12:16 | 59.68203 | 3.65591 | 38038 ft | 431 kts | 303° |
| 2026-05-06 12:17 | 59.71856 | 3.56196 | 38042 ft | 431 kts | 303° |
| 2026-05-06 12:17 | 59.75472 | 3.46861 | 38040 ft | 431 kts | 303° |
| 2026-05-06 12:18 | 59.79095 | 3.37472 | 38041 ft | 430 kts | 303° |
| 2026-05-06 12:18 | 59.82726 | 3.28017 | 38039 ft | 430 kts | 303° |
| 2026-05-06 12:19 | 59.86331 | 3.18598 | 38038 ft | 430 kts | 303° |
| 2026-05-06 12:19 | 59.89918 | 3.09185 | 38036 ft | 430 kts | 303° |
| 2026-05-06 12:20 | 59.93514 | 2.99708 | 38033 ft | 430 kts | 303° |
| 2026-05-06 12:20 | 59.97099 | 2.90224 | 38031 ft | 430 kts | 303° |
| 2026-05-06 12:21 | 60.00684 | 2.80700 | 38027 ft | 429 kts | 303° |
| 2026-05-06 12:21 | 60.04246 | 2.71198 | 38024 ft | 429 kts | 303° |
| 2026-05-06 12:22 | 60.07798 | 2.61687 | 37988 ft | 430 kts | 303° |
| 2026-05-06 12:22 | 60.11359 | 2.52108 | 37974 ft | 430 kts | 303° |
| 2026-05-06 12:23 | 60.14893 | 2.42566 | 38006 ft | 430 kts | 303° |
| 2026-05-06 12:23 | 60.18449 | 2.32927 | 38017 ft | 430 kts | 302° |
| 2026-05-06 12:24 | 60.21998 | 2.23262 | 38017 ft | 430 kts | 302° |
| 2026-05-06 12:24 | 60.25511 | 2.13667 | 38016 ft | 430 kts | 302° |
| 2026-05-06 12:25 | 60.29036 | 2.03995 | 38013 ft | 430 kts | 302° |
| 2026-05-06 12:25 | 60.32563 | 1.94274 | 38011 ft | 429 kts | 302° |
| 2026-05-06 12:26 | 60.36049 | 1.84625 | 38003 ft | 429 kts | 302° |
| 2026-05-06 12:26 | 60.39554 | 1.74880 | 37996 ft | 429 kts | 302° |
| 2026-05-06 12:27 | 60.43040 | 1.65149 | 37986 ft | 430 kts | 302° |
| 2026-05-06 12:27 | 60.46530 | 1.55366 | 37984 ft | 430 kts | 302° |
| 2026-05-06 12:28 | 60.50005 | 1.45588 | 37981 ft | 430 kts | 302° |
| 2026-05-06 12:28 | 60.53477 | 1.35779 | 37980 ft | 430 kts | 302° |
| 2026-05-06 12:29 | 60.56948 | 1.25928 | 37980 ft | 430 kts | 302° |
| 2026-05-06 12:29 | 60.60407 | 1.16067 | 37983 ft | 430 kts | 302° |
| 2026-05-06 12:30 | 60.63850 | 1.06208 | 37989 ft | 430 kts | 302° |
| 2026-05-06 12:30 | 60.67303 | 0.96277 | 37994 ft | 430 kts | 302° |
| 2026-05-06 12:31 | 60.70740 | 0.86354 | 38001 ft | 431 kts | 302° |
| 2026-05-06 12:31 | 60.74175 | 0.76393 | 38002 ft | 431 kts | 302° |
| 2026-05-06 12:32 | 60.77608 | 0.66394 | 38004 ft | 431 kts | 302° |
| 2026-05-06 12:32 | 60.81013 | 0.56436 | 38005 ft | 431 kts | 302° |
| 2026-05-06 12:33 | 60.84436 | 0.46381 | 38007 ft | 431 kts | 302° |
| 2026-05-06 12:33 | 60.87830 | 0.36366 | 38008 ft | 431 kts | 302° |
| 2026-05-06 12:34 | 60.91230 | 0.26284 | 38011 ft | 431 kts | 302° |
| 2026-05-06 12:34 | 60.94621 | 0.16183 | 38016 ft | 431 kts | 302° |
| 2026-05-06 12:35 | 60.97867 | 0.05876 | 38020 ft | 430 kts | 297° |
| 2026-05-06 12:35 | 61.00547 | -0.04992 | 38022 ft | 429 kts | 291° |
| 2026-05-06 12:36 | 61.02668 | -0.16476 | 38043 ft | 429 kts | 287° |
| 2026-05-06 12:36 | 61.04546 | -0.28105 | 38051 ft | 429 kts | 287° |
| 2026-05-06 12:37 | 61.06406 | -0.39737 | 38036 ft | 429 kts | 287° |
| 2026-05-06 12:37 | 61.08261 | -0.51386 | 38029 ft | 429 kts | 287° |
| 2026-05-06 12:38 | 61.10104 | -0.63038 | 38026 ft | 429 kts | 287° |
| 2026-05-06 12:38 | 61.11947 | -0.74765 | 38026 ft | 429 kts | 287° |
| 2026-05-06 12:39 | 61.13766 | -0.86417 | 38027 ft | 429 kts | 287° |
| 2026-05-06 12:39 | 61.15588 | -0.98164 | 38028 ft | 429 kts | 287° |
| 2026-05-06 12:40 | 61.17393 | -1.09887 | 38028 ft | 429 kts | 287° |
| 2026-05-06 12:40 | 61.19186 | -1.21607 | 38029 ft | 429 kts | 287° |
| 2026-05-06 12:41 | 61.20970 | -1.33354 | 38029 ft | 429 kts | 287° |
| 2026-05-06 12:41 | 61.22744 | -1.45111 | 38030 ft | 430 kts | 287° |
| 2026-05-06 12:42 | 61.24513 | -1.56916 | 38032 ft | 430 kts | 287° |
| 2026-05-06 12:42 | 61.26264 | -1.68682 | 38037 ft | 430 kts | 286° |
| 2026-05-06 12:43 | 61.28007 | -1.80474 | 38036 ft | 430 kts | 286° |
| 2026-05-06 12:43 | 61.29753 | -1.92364 | 38026 ft | 430 kts | 286° |
| 2026-05-06 12:44 | 61.31473 | -2.04171 | 38019 ft | 430 kts | 286° |
| 2026-05-06 12:44 | 61.33192 | -2.16049 | 38017 ft | 430 kts | 286° |
| 2026-05-06 12:45 | 61.34893 | -2.27890 | 38022 ft | 430 kts | 286° |
| 2026-05-06 12:46 | 61.37436 | -2.45748 | 38025 ft | 430 kts | 286° |
| 2026-05-06 12:46 | 61.39117 | -2.57665 | 38026 ft | 430 kts | 286° |
| 2026-05-06 12:47 | 61.40785 | -2.69587 | 38027 ft | 430 kts | 285° |
| 2026-05-06 12:47 | 61.42437 | -2.81470 | 37941 ft | 431 kts | 285° |
| 2026-05-06 12:47 | 61.43263 | -2.87443 | 37742 ft | 428 kts | 285° |
| 2026-05-06 12:48 | 61.44078 | -2.93360 | 37544 ft | 426 kts | 285° |
| 2026-05-06 12:48 | 61.44896 | -2.99316 | 37344 ft | 423 kts | 285° |
| 2026-05-06 12:48 | 61.45698 | -3.05179 | 37145 ft | 420 kts | 285° |
| 2026-05-06 12:48 | 61.46489 | -3.10990 | 36946 ft | 418 kts | 285° |
| 2026-05-06 12:49 | 61.47273 | -3.16764 | 36749 ft | 416 kts | 285° |
| 2026-05-06 12:49 | 61.48059 | -3.22567 | 36550 ft | 415 kts | 285° |
| 2026-05-06 12:49 | 61.48838 | -3.28346 | 36351 ft | 414 kts | 285° |
| 2026-05-06 12:49 | 61.49606 | -3.34065 | 36153 ft | 413 kts | 285° |
| 2026-05-06 12:50 | 61.50377 | -3.39821 | 35950 ft | 412 kts | 285° |
| 2026-05-06 12:50 | 61.51141 | -3.45551 | 35746 ft | 411 kts | 285° |
| 2026-05-06 12:50 | 61.51908 | -3.51335 | 35483 ft | 411 kts | 285° |
| 2026-05-06 12:50 | 61.52663 | -3.57042 | 35112 ft | 411 kts | 285° |
| 2026-05-06 12:51 | 61.53418 | -3.62774 | 34604 ft | 412 kts | 285° |
| 2026-05-06 12:51 | 61.54177 | -3.68549 | 34017 ft | 414 kts | 284° |
| 2026-05-06 12:51 | 61.54935 | -3.74358 | 33388 ft | 417 kts | 284° |
| 2026-05-06 12:51 | 61.55701 | -3.80240 | 32724 ft | 420 kts | 284° |
| 2026-05-06 12:52 | 61.56460 | -3.86090 | 32090 ft | 423 kts | 284° |
| 2026-05-06 12:52 | 61.57223 | -3.92000 | 31427 ft | 426 kts | 284° |
| 2026-05-06 12:52 | 61.57992 | -3.97967 | 30737 ft | 428 kts | 284° |
| 2026-05-06 12:52 | 61.58765 | -4.03992 | 30033 ft | 430 kts | 284° |
| 2026-05-06 12:53 | 61.59531 | -4.09977 | 29364 ft | 430 kts | 284° |
| 2026-05-06 12:53 | 61.60293 | -4.15968 | 28670 ft | 420 kts | 284° |
| 2026-05-06 12:53 | 61.61031 | -4.21779 | 28176 ft | 407 kts | 284° |
| 2026-05-06 12:53 | 61.61738 | -4.27374 | 27708 ft | 399 kts | 285° |
| 2026-05-06 12:54 | 61.62441 | -4.32955 | 27177 ft | 395 kts | 285° |
| 2026-05-06 12:54 | 61.63137 | -4.38490 | 26660 ft | 391 kts | 285° |
| 2026-05-06 12:54 | 61.63825 | -4.43983 | 26149 ft | 387 kts | 285° |
| 2026-05-06 12:54 | 61.64498 | -4.49377 | 25651 ft | 383 kts | 285° |
| 2026-05-06 12:55 | 61.65163 | -4.54733 | 25168 ft | 379 kts | 284° |
| 2026-05-06 12:55 | 61.65826 | -4.60081 | 24684 ft | 376 kts | 284° |
| 2026-05-06 12:55 | 61.66474 | -4.65339 | 24208 ft | 372 kts | 284° |
| 2026-05-06 12:55 | 61.67118 | -4.70583 | 23733 ft | 369 kts | 284° |
| 2026-05-06 12:56 | 61.67756 | -4.75793 | 23236 ft | 366 kts | 284° |
| 2026-05-06 12:56 | 61.68380 | -4.80914 | 22750 ft | 363 kts | 284° |
| 2026-05-06 12:56 | 61.69001 | -4.86013 | 22270 ft | 359 kts | 284° |
| 2026-05-06 12:56 | 61.69613 | -4.91074 | 21793 ft | 356 kts | 284° |
| 2026-05-06 12:57 | 61.70217 | -4.96098 | 21319 ft | 354 kts | 284° |
| 2026-05-06 12:57 | 61.70810 | -5.01043 | 20847 ft | 351 kts | 284° |
| 2026-05-06 12:57 | 61.71402 | -5.05994 | 20373 ft | 348 kts | 284° |
| 2026-05-06 12:57 | 61.71991 | -5.10926 | 19896 ft | 345 kts | 284° |
| 2026-05-06 12:58 | 61.72569 | -5.15784 | 19426 ft | 342 kts | 284° |
| 2026-05-06 12:58 | 61.73147 | -5.20648 | 18957 ft | 340 kts | 284° |
| 2026-05-06 12:58 | 61.73710 | -5.25401 | 18499 ft | 337 kts | 284° |
| 2026-05-06 12:58 | 61.74276 | -5.30201 | 18035 ft | 335 kts | 284° |
| 2026-05-06 12:59 | 61.74829 | -5.34868 | 17578 ft | 332 kts | 284° |
| 2026-05-06 12:59 | 61.75377 | -5.39578 | 17117 ft | 329 kts | 284° |
| 2026-05-06 12:59 | 61.75919 | -5.44247 | 16653 ft | 327 kts | 285° |
| 2026-05-06 12:59 | 61.76466 | -5.48869 | 16196 ft | 325 kts | 285° |
| 2026-05-06 13:00 | 61.77005 | -5.53465 | 15740 ft | 323 kts | 284° |
| 2026-05-06 13:00 | 61.77533 | -5.58003 | 15287 ft | 321 kts | 284° |
| 2026-05-06 13:00 | 61.78059 | -5.62568 | 14829 ft | 319 kts | 284° |
| 2026-05-06 13:00 | 61.78577 | -5.67067 | 14384 ft | 317 kts | 283° |
| 2026-05-06 13:01 | 61.79085 | -5.71554 | 13954 ft | 315 kts | 284° |
| 2026-05-06 13:01 | 61.79596 | -5.76077 | 13509 ft | 314 kts | 284° |
| 2026-05-06 13:01 | 61.80104 | -5.80528 | 13077 ft | 312 kts | 284° |
| 2026-05-06 13:01 | 61.80606 | -5.84958 | 12636 ft | 311 kts | 284° |
| 2026-05-06 13:02 | 61.81100 | -5.89366 | 12200 ft | 310 kts | 284° |
| 2026-05-06 13:02 | 61.81594 | -5.93782 | 11761 ft | 310 kts | 285° |
| 2026-05-06 13:02 | 61.82090 | -5.98166 | 11343 ft | 308 kts | 284° |
| 2026-05-06 13:02 | 61.82584 | -6.02559 | 10921 ft | 305 kts | 285° |
| 2026-05-06 13:03 | 61.83074 | -6.06884 | 10637 ft | 296 kts | 285° |
| 2026-05-06 13:03 | 61.83539 | -6.11012 | 10504 ft | 284 kts | 285° |
| 2026-05-06 13:03 | 61.83979 | -6.14960 | 10370 ft | 272 kts | 285° |
| 2026-05-06 13:03 | 61.84401 | -6.18760 | 10244 ft | 261 kts | 285° |
| 2026-05-06 13:04 | 61.84810 | -6.22460 | 10135 ft | 249 kts | 285° |
| 2026-05-06 13:04 | 61.85189 | -6.25908 | 10030 ft | 239 kts | 285° |
| 2026-05-06 13:04 | 61.85563 | -6.29317 | 9727 ft | 237 kts | 285° |
| 2026-05-06 13:04 | 61.85936 | -6.32714 | 9428 ft | 235 kts | 285° |
| 2026-05-06 13:05 | 61.86301 | -6.36055 | 9142 ft | 232 kts | 285° |
| 2026-05-06 13:05 | 61.86659 | -6.39341 | 8863 ft | 230 kts | 285° |
| 2026-05-06 13:05 | 61.87014 | -6.42621 | 8633 ft | 225 kts | 285° |
| 2026-05-06 13:05 | 61.87357 | -6.45789 | 8433 ft | 219 kts | 285° |
| 2026-05-06 13:06 | 61.87693 | -6.48901 | 8195 ft | 215 kts | 285° |
| 2026-05-06 13:06 | 61.88021 | -6.51953 | 7949 ft | 211 kts | 285° |
| 2026-05-06 13:06 | 61.88341 | -6.54922 | 7698 ft | 207 kts | 285° |
| 2026-05-06 13:06 | 61.88654 | -6.57840 | 7472 ft | 199 kts | 286° |
| 2026-05-06 13:07 | 61.88976 | -6.60623 | 7238 ft | 192 kts | 287° |
| 2026-05-06 13:07 | 61.89297 | -6.63311 | 6955 ft | 186 kts | 287° |
| 2026-05-06 13:07 | 61.89611 | -6.65940 | 6686 ft | 180 kts | 286° |
| 2026-05-06 13:07 | 61.89907 | -6.68435 | 6448 ft | 173 kts | 286° |
| 2026-05-06 13:08 | 61.90191 | -6.70851 | 6232 ft | 167 kts | 286° |
| 2026-05-06 13:08 | 61.90472 | -6.73241 | 6040 ft | 167 kts | 286° |
| 2026-05-06 13:08 | 61.90750 | -6.75623 | 5840 ft | 166 kts | 286° |
| 2026-05-06 13:08 | 61.91024 | -6.77977 | 5641 ft | 166 kts | 287° |
| 2026-05-06 13:09 | 61.91302 | -6.80366 | 5441 ft | 166 kts | 287° |
| 2026-05-06 13:09 | 61.91576 | -6.82703 | 5243 ft | 165 kts | 287° |
| 2026-05-06 13:09 | 61.91851 | -6.85070 | 5044 ft | 165 kts | 286° |
| 2026-05-06 13:09 | 61.92123 | -6.87433 | 4844 ft | 165 kts | 286° |
| 2026-05-06 13:10 | 61.92394 | -6.89784 | 4645 ft | 164 kts | 287° |
| 2026-05-06 13:10 | 61.92664 | -6.92132 | 4447 ft | 164 kts | 287° |
| 2026-05-06 13:10 | 61.92933 | -6.94472 | 4419 ft | 164 kts | 287° |
| 2026-05-06 13:10 | 61.93204 | -6.96812 | 4407 ft | 164 kts | 287° |
| 2026-05-06 13:11 | 61.93475 | -6.99164 | 4382 ft | 165 kts | 287° |
| 2026-05-06 13:11 | 61.93743 | -7.01527 | 4355 ft | 165 kts | 287° |
| 2026-05-06 13:11 | 61.94011 | -7.03879 | 4324 ft | 165 kts | 287° |
| 2026-05-06 13:11 | 61.94282 | -7.06265 | 4272 ft | 165 kts | 287° |
| 2026-05-06 13:12 | 61.94551 | -7.08624 | 4175 ft | 164 kts | 288° |
| 2026-05-06 13:12 | 61.94820 | -7.10956 | 4082 ft | 164 kts | 288° |
| 2026-05-06 13:12 | 61.95105 | -7.13307 | 3985 ft | 164 kts | 288° |
| 2026-05-06 13:12 | 61.95390 | -7.15669 | 3745 ft | 164 kts | 289° |
| 2026-05-06 13:13 | 61.95674 | -7.17984 | 3475 ft | 163 kts | 289° |
| 2026-05-06 13:13 | 61.95946 | -7.20269 | 3239 ft | 156 kts | 289° |
| 2026-05-06 13:13 | 61.96343 | -7.22299 | 2941 ft | 143 kts | 308° |
| 2026-05-06 13:13 | 61.96981 | -7.23796 | 2623 ft | 132 kts | 326° |
| 2026-05-06 13:14 | 61.97746 | -7.24837 | 2441 ft | 132 kts | 339° |
| 2026-05-06 13:14 | 61.98622 | -7.25395 | 2284 ft | 133 kts | 354° |
| 2026-05-06 13:14 | 61.99549 | -7.25419 | 2084 ft | 133 kts | 9° |
| 2026-05-06 13:14 | 62.00433 | -7.24909 | 1843 ft | 133 kts | 23° |
| 2026-05-06 13:15 | 62.01275 | -7.24070 | 1617 ft | 133 kts | 27° |
| 2026-05-06 13:15 | 62.02079 | -7.23159 | 1392 ft | 132 kts | 30° |
| 2026-05-06 13:15 | 62.02895 | -7.22226 | 1190 ft | 132 kts | 25° |
| 2026-05-06 13:15 | 62.03780 | -7.21840 | 978 ft | 133 kts | 0° |
| 2026-05-06 13:16 | 62.04654 | -7.22383 | 776 ft | 133 kts | 332° |
| 2026-05-06 13:16 | 62.05348 | -7.23664 | 555 ft | 133 kts | 310° |
| 2026-05-06 13:16 | 62.05788 | -7.25405 | 373 ft | 134 kts | 301° |
| 2026-05-06 13:16 | 62.06206 | -7.27089 | 284 ft | 101 kts | 298° |
| 2026-05-06 13:17 | 62.06432 | -7.28005 | 298 ft | 28 kts | 296° |
| 2026-05-06 13:17 | 62.06504 | -7.28135 | 295 ft | 12 kts | 16° |
| 2026-05-06 13:17 | 62.06560 | -7.28093 | 293 ft | 5 kts | 13° |
| 2026-05-06 13:17 | 62.06591 | -7.28088 | 293 ft | 3 kts | 1° |
| 2026-05-06 13:18 | 62.06621 | -7.28088 | 293 ft | 5 kts | 0° |
| 2026-05-06 13:18 | 62.06648 | -7.28044 | 292 ft | 6 kts | 84° |
| 2026-05-06 13:18 | 62.06664 | -7.27979 | 292 ft | 4 kts | 34° |
| 2026-05-06 13:18 | 62.06686 | -7.27950 | 293 ft | 0 kts | 28° |